Time;durP1;ratioP1;P1;durP2;ratioP2;P2;SDS_P1;SDS_P2;PMS_P1;PMS_P2;Temp;Humidity;BMP_temperature;BMP_pressure;BME280_temperature;BME280_humidity;BME280_pressure;Samples;Min_cycle;Max_cycle;Signal;HPM_P1;HPM_P2
2022/02/01 00:01:53;;;;;;;;;;;10.70;55.40;;;;;;5080247;28;19913;-69
2022/02/01 00:04:34;;;;;;;;;;;10.70;55.40;;;;;;5080220;28;19912;-69
2022/02/01 00:09:41;;;;;;;;;;;10.70;55.40;;;;;;5080321;28;19979;-70
2022/02/01 00:12:19;;;;;;;;;;;10.70;55.30;;;;;;5080061;28;20296;-69
2022/02/01 00:34:19;;;;;;;;;;;10.70;55.40;;;;;;5079878;28;20035;-70
2022/02/01 00:36:52;;;;;;;;;;;10.70;55.40;;;;;;5079827;28;20239;-70
2022/02/01 00:39:18;;;;;;;;;;;10.70;55.30;;;;;;5079856;28;19958;-71
2022/02/01 00:41:51;;;;;;;;;;;10.70;55.30;;;;;;5079735;28;19944;-70
2022/02/01 00:44:17;;;;;;;;;;;10.70;55.40;;;;;;5078500;28;19943;-70
2022/02/01 00:46:43;;;;;;;;;;;10.70;55.40;;;;;;5079680;28;20440;-70
2022/02/01 00:49:08;;;;;;;;;;;10.70;55.40;;;;;;5079725;28;20173;-71
2022/02/01 00:51:34;;;;;;;;;;;10.70;55.40;;;;;;5079684;28;19912;-70
2022/02/01 00:53:59;;;;;;;;;;;10.70;55.30;;;;;;5079673;28;19920;-71
2022/02/01 00:56:25;;;;;;;;;;;10.70;55.40;;;;;;5079521;28;19917;-70
2022/02/01 00:58:51;;;;;;;;;;;10.70;55.30;;;;;;5079618;28;19975;-71
2022/02/01 01:01:16;;;;;;;;;;;10.70;55.30;;;;;;5079623;28;19912;-70
2022/02/01 01:03:44;;;;;;;;;;;10.70;55.40;;;;;;5079569;28;19944;-70
2022/02/01 01:06:10;;;;;;;;;;;10.70;55.50;;;;;;5079501;28;19912;-70
2022/02/01 01:08:35;;;;;;;;;;;10.70;55.50;;;;;;5079492;28;19983;-70
2022/02/01 01:11:02;;;;;;;;;;;10.70;56.10;;;;;;5079467;28;19913;-70
2022/02/01 01:16:34;;;;;;;;;;;10.60;55.50;;;;;;5079628;28;19912;-69
2022/02/01 01:43:55;;;;;;;;;;;10.70;55.50;;;;;;5082780;28;19928;-71
2022/02/01 01:54:01;;;;;;;;;;;10.70;55.50;;;;;;5082880;28;19911;-70
2022/02/01 01:56:29;;;;;;;;;;;10.70;55.50;;;;;;5082496;28;19924;-69
2022/02/01 01:58:55;;;;;;;;;;;10.70;55.30;;;;;;5082522;28;19913;-71
2022/02/01 02:01:21;;;;;;;;;;;10.70;55.30;;;;;;5082449;28;20143;-70
2022/02/01 02:03:47;;;;;;;;;;;10.70;55.20;;;;;;5082493;28;19912;-70
2022/02/01 02:06:14;;;;;;;;;;;10.80;55.20;;;;;;5082452;28;19912;-71
2022/02/01 02:08:45;;;;;;;;;;;10.70;55.20;;;;;;5082335;28;19912;-70
2022/02/01 02:11:15;;;;;;;;;;;10.70;55.40;;;;;;5082348;28;19912;-70
2022/02/01 02:16:32;;;;;;;;;;;10.70;55.50;;;;;;5082160;28;19970;-69
2022/02/01 02:18:58;;;;;;;;;;;10.60;55.50;;;;;;5080699;28;19924;-69
2022/02/01 02:21:24;;;;;;;;;;;10.70;55.60;;;;;;5082125;28;19999;-69
2022/02/01 02:23:49;;;;;;;;;;;10.60;55.50;;;;;;5082137;28;19919;-69
2022/02/01 02:26:16;;;;;;;;;;;10.60;55.60;;;;;;5081976;28;19919;-69
2022/02/01 02:28:42;;;;;;;;;;;10.60;55.50;;;;;;5081991;28;19911;-69
2022/02/01 02:31:07;;;;;;;;;;;10.60;55.50;;;;;;5082016;28;19984;-69
2022/02/01 02:33:33;;;;;;;;;;;10.60;55.50;;;;;;5081930;28;19919;-70
2022/02/01 02:36:06;;;;;;;;;;;10.70;55.50;;;;;;5081771;28;19923;-69
2022/02/01 02:41:25;;;;;;;;;;;10.70;55.30;;;;;;5081742;28;19905;-70
2022/02/01 02:46:37;;;;;;;;;;;10.70;55.40;;;;;;5081692;28;19958;-70
2022/02/01 02:49:09;;;;;;;;;;;10.70;55.50;;;;;;5080836;28;20116;-70
2022/02/01 02:51:35;;;;;;;;;;;10.70;55.50;;;;;;5081593;28;20186;-71
2022/02/01 02:54:04;;;;;;;;;;;10.60;55.50;;;;;;5081547;28;19947;-71
2022/02/01 02:56:30;;;;;;;;;;;10.70;55.60;;;;;;5081380;28;19938;-70
2022/02/01 02:58:55;;;;;;;;;;;10.70;55.60;;;;;;5081442;28;19904;-70
2022/02/01 03:01:21;;;;;;;;;;;10.70;55.60;;;;;;5081341;28;20002;-70
2022/02/01 03:03:47;;;;;;;;;;;10.60;55.60;;;;;;5080112;28;19912;-70
2022/02/01 03:06:12;;;;;;;;;;;10.60;55.60;;;;;;5081243;28;19966;-71
2022/02/01 03:08:38;;;;;;;;;;;10.60;55.50;;;;;;5081270;28;19912;-72
2022/02/01 03:11:09;;;;;;;;;;;10.70;55.60;;;;;;5081191;28;19912;-70
2022/02/01 03:13:35;;;;;;;;;;;10.60;55.60;;;;;;5081150;28;19977;-70
2022/02/01 03:21:16;;;;;;;;;;;10.70;55.50;;;;;;5080930;28;19966;-70
2022/02/01 03:23:42;;;;;;;;;;;10.70;55.50;;;;;;5079639;28;19912;-69
2022/02/01 03:26:07;;;;;;;;;;;10.70;55.50;;;;;;5080894;28;19911;-69
2022/02/01 03:28:33;;;;;;;;;;;10.60;55.50;;;;;;5080825;28;19983;-69
2022/02/01 03:30:58;;;;;;;;;;;10.60;55.60;;;;;;5080859;28;19919;-70
2022/02/01 03:33:24;;;;;;;;;;;10.60;55.70;;;;;;5080727;28;19957;-69
2022/02/01 03:35:49;;;;;;;;;;;10.60;55.60;;;;;;5080768;28;19920;-71
2022/02/01 03:38:15;;;;;;;;;;;10.60;55.60;;;;;;5080512;28;19916;-70
2022/02/01 03:40:40;;;;;;;;;;;10.60;55.60;;;;;;5080616;28;19904;-70
2022/02/01 03:43:06;;;;;;;;;;;10.60;55.60;;;;;;5080656;28;20127;-69
2022/02/01 03:45:32;;;;;;;;;;;10.60;55.60;;;;;;5080518;28;20166;-70
2022/02/01 03:47:57;;;;;;;;;;;10.60;55.60;;;;;;5080450;28;19954;-70
2022/02/01 03:50:23;;;;;;;;;;;10.60;55.60;;;;;;5079124;28;19969;-70
2022/02/01 03:52:48;;;;;;;;;;;10.60;55.60;;;;;;5080408;28;19912;-70
2022/02/01 03:55:14;;;;;;;;;;;10.70;55.60;;;;;;5080310;28;20131;-70
2022/02/01 03:57:39;;;;;;;;;;;10.60;55.50;;;;;;5080306;28;19923;-70
2022/02/01 04:00:06;;;;;;;;;;;10.70;55.60;;;;;;5080299;28;19942;-69
2022/02/01 04:02:31;;;;;;;;;;;10.70;55.60;;;;;;5079015;28;19943;-70
2022/02/01 04:04:57;;;;;;;;;;;10.60;55.60;;;;;;5080162;28;19920;-70
2022/02/01 04:07:22;;;;;;;;;;;10.60;55.60;;;;;;5080267;28;19979;-70
2022/02/01 04:09:50;;;;;;;;;;;10.60;55.60;;;;;;5080127;28;19920;-70
2022/02/01 04:12:16;;;;;;;;;;;10.60;55.70;;;;;;5080173;28;19904;-70
2022/02/01 04:14:42;;;;;;;;;;;10.60;55.70;;;;;;5080126;28;19935;-69
2022/02/01 04:17:09;;;;;;;;;;;10.60;55.70;;;;;;5079984;28;19946;-70
2022/02/01 04:19:35;;;;;;;;;;;10.60;55.70;;;;;;5079914;28;19935;-70
2022/02/01 04:22:01;;;;;;;;;;;10.60;55.70;;;;;;5080185;28;19916;-69
2022/02/01 04:24:30;;;;;;;;;;;10.60;55.60;;;;;;5080027;28;20224;-69
2022/02/01 04:26:56;;;;;;;;;;;10.60;55.50;;;;;;5080018;28;20211;-70
2022/02/01 04:29:22;;;;;;;;;;;10.70;55.50;;;;;;5079993;28;19912;-70
2022/02/01 04:31:48;;;;;;;;;;;10.70;55.50;;;;;;5079950;28;19944;-70
2022/02/01 04:34:13;;;;;;;;;;;10.60;55.60;;;;;;5079807;28;19916;-69
2022/02/01 04:36:39;;;;;;;;;;;10.60;55.60;;;;;;5079845;28;20014;-71
2022/02/01 04:39:05;;;;;;;;;;;10.60;55.60;;;;;;5078592;28;19919;-70
2022/02/01 04:41:31;;;;;;;;;;;10.60;55.60;;;;;;5079826;28;19909;-70
2022/02/01 04:44:00;;;;;;;;;;;10.60;55.70;;;;;;5079830;28;19987;-71
2022/02/01 04:46:26;;;;;;;;;;;10.60;55.70;;;;;;5078592;28;20128;-70
2022/02/01 04:48:52;;;;;;;;;;;10.60;55.70;;;;;;5079738;28;19912;-70
2022/02/01 04:51:19;;;;;;;;;;;10.60;55.70;;;;;;5079771;28;19905;-70
2022/02/01 04:53:44;;;;;;;;;;;10.60;55.70;;;;;;5079584;28;19920;-70
2022/02/01 04:56:10;;;;;;;;;;;10.60;55.70;;;;;;5079626;28;19912;-69
2022/02/01 04:58:36;;;;;;;;;;;10.60;55.70;;;;;;5079618;28;19991;-69
2022/02/01 05:01:02;;;;;;;;;;;10.60;55.60;;;;;;5079588;28;19920;-69
2022/02/01 05:03:27;;;;;;;;;;;10.60;55.60;;;;;;5079572;28;19904;-70
2022/02/01 05:05:53;;;;;;;;;;;10.60;55.50;;;;;;5078223;28;19983;-69
2022/02/01 05:08:18;;;;;;;;;;;10.60;55.60;;;;;;5079561;28;19919;-70
2022/02/01 05:10:44;;;;;;;;;;;10.60;55.50;;;;;;5079450;28;19926;-70
2022/02/01 05:15:49;;;;;;;;;;;10.70;55.60;;;;;;5083638;28;19912;-70
2022/02/01 05:18:22;;;;;;;;;;;10.60;55.60;;;;;;5082996;28;19924;-70
2022/02/01 05:20:59;;;;;;;;;;;10.60;55.60;;;;;;5083479;28;19904;-70
2022/02/01 05:23:24;;;;;;;;;;;10.60;55.70;;;;;;5083156;28;19913;-70
2022/02/01 05:25:51;;;;;;;;;;;10.60;55.70;;;;;;5083125;28;20143;-69
2022/02/01 05:28:17;;;;;;;;;;;10.60;55.70;;;;;;5083055;28;19947;-70
2022/02/01 05:30:42;;;;;;;;;;;10.60;55.80;;;;;;5083034;28;19938;-70
2022/02/01 05:33:08;;;;;;;;;;;10.60;55.80;;;;;;5082995;28;19913;-70
2022/02/01 05:35:33;;;;;;;;;;;10.60;55.70;;;;;;5082928;28;19913;-70
2022/02/01 05:37:59;;;;;;;;;;;10.60;55.70;;;;;;5082829;28;19920;-70
2022/02/01 05:40:26;;;;;;;;;;;10.60;55.70;;;;;;5082788;28;20215;-70
2022/02/01 05:43:02;;;;;;;;;;;10.60;55.60;;;;;;5081516;28;19919;-70
2022/02/01 05:45:28;;;;;;;;;;;10.60;55.60;;;;;;5082810;28;20222;-71
2022/02/01 05:47:54;;;;;;;;;;;10.60;55.60;;;;;;5082690;28;19916;-71
2022/02/01 05:50:20;;;;;;;;;;;10.60;55.70;;;;;;5082679;28;19912;-71
2022/02/01 05:52:46;;;;;;;;;;;10.60;55.70;;;;;;5082547;28;20192;-70
2022/02/01 05:55:12;;;;;;;;;;;10.60;55.70;;;;;;5082535;28;19983;-71
2022/02/01 05:57:38;;;;;;;;;;;10.60;55.80;;;;;;5082558;28;19916;-71
2022/02/01 06:00:04;;;;;;;;;;;10.60;55.80;;;;;;5082396;28;19913;-70
2022/02/01 06:02:30;;;;;;;;;;;10.60;55.80;;;;;;5081251;28;19912;-70
2022/02/01 06:04:55;;;;;;;;;;;10.60;55.70;;;;;;5082403;28;19904;-70
2022/02/01 06:07:21;;;;;;;;;;;10.60;55.70;;;;;;5082304;28;19928;-70
2022/02/01 06:09:46;;;;;;;;;;;10.60;55.80;;;;;;5082267;28;19919;-70
2022/02/01 06:12:12;;;;;;;;;;;10.60;55.80;;;;;;5082233;28;19911;-71
2022/02/01 06:14:38;;;;;;;;;;;10.60;55.80;;;;;;5082218;28;19912;-70
2022/02/01 06:17:04;;;;;;;;;;;10.60;55.80;;;;;;5082097;28;19924;-70
2022/02/01 06:19:29;;;;;;;;;;;10.60;55.80;;;;;;5081985;28;19931;-71
2022/02/01 06:21:55;;;;;;;;;;;10.60;55.70;;;;;;5082057;28;19979;-71
2022/02/01 06:24:22;;;;;;;;;;;10.60;55.70;;;;;;5079574;28;19926;-70
2022/02/01 06:26:47;;;;;;;;;;;10.60;55.70;;;;;;5082006;28;19904;-71
2022/02/01 06:29:13;;;;;;;;;;;10.60;55.70;;;;;;5080656;28;19919;-71
2022/02/01 06:31:38;;;;;;;;;;;10.60;55.70;;;;;;5081898;28;20200;-71
2022/02/01 06:34:04;;;;;;;;;;;10.60;55.80;;;;;;5081806;28;20145;-71
2022/02/01 06:36:29;;;;;;;;;;;10.60;55.80;;;;;;5081782;28;20264;-70
2022/02/01 06:38:55;;;;;;;;;;;10.60;55.80;;;;;;5081740;28;19979;-71
2022/02/01 06:41:21;;;;;;;;;;;10.60;55.80;;;;;;5081626;28;19926;-71
2022/02/01 06:43:47;;;;;;;;;;;10.60;55.80;;;;;;5080434;28;19920;-70
2022/02/01 06:46:13;;;;;;;;;;;10.60;55.80;;;;;;5081502;28;19963;-71
2022/02/01 06:48:38;;;;;;;;;;;10.60;55.80;;;;;;5081523;28;20209;-71
2022/02/01 06:51:04;;;;;;;;;;;10.60;55.80;;;;;;5081472;28;19912;-70
2022/02/01 06:53:35;;;;;;;;;;;10.60;55.80;;;;;;5081456;28;19919;-70
2022/02/01 06:56:11;;;;;;;;;;;10.60;55.80;;;;;;5081355;28;20181;-70
2022/02/01 06:58:37;;;;;;;;;;;10.60;55.80;;;;;;5081441;28;19951;-70
2022/02/01 07:01:03;;;;;;;;;;;10.60;55.70;;;;;;5081179;28;19904;-70
2022/02/01 07:03:28;;;;;;;;;;;10.60;55.70;;;;;;5081295;28;19912;-69
2022/02/01 07:05:54;;;;;;;;;;;10.60;55.80;;;;;;5079917;28;20280;-71
2022/02/01 07:08:20;;;;;;;;;;;10.60;55.70;;;;;;5081134;28;19940;-69
2022/02/01 07:10:46;;;;;;;;;;;10.60;55.80;;;;;;5081148;28;19971;-69
2022/02/01 07:13:12;;;;;;;;;;;10.60;55.80;;;;;;5081048;28;20301;-70
2022/02/01 07:15:37;;;;;;;;;;;10.60;55.80;;;;;;5081094;28;19926;-69
2022/02/01 07:18:03;;;;;;;;;;;10.60;55.80;;;;;;5080712;28;19925;-70
2022/02/01 07:20:31;;;;;;;;;;;10.60;55.80;;;;;;5080901;28;19944;-70
2022/02/01 07:22:56;;;;;;;;;;;10.60;55.70;;;;;;5080887;28;20270;-70
2022/02/01 07:27:51;;;;;;;;;;;10.60;55.70;;;;;;5081029;28;19944;-70
2022/02/01 07:30:23;;;;;;;;;;;10.60;55.60;;;;;;5080724;28;19954;-71
2022/02/01 07:32:49;;;;;;;;;;;10.70;55.60;;;;;;5081048;28;19912;-70
2022/02/01 07:35:15;;;;;;;;;;;10.60;55.60;;;;;;5080296;28;19979;-70
2022/02/01 07:37:42;;;;;;;;;;;10.70;55.60;;;;;;5079312;28;19916;-69
2022/02/01 07:40:08;;;;;;;;;;;10.60;55.60;;;;;;5080595;28;19911;-69
2022/02/01 07:42:34;;;;;;;;;;;10.60;55.60;;;;;;5080440;28;20249;-70
2022/02/01 07:45:02;;;;;;;;;;;10.60;55.60;;;;;;5080408;28;19917;-70
2022/02/01 07:47:28;;;;;;;;;;;10.60;55.60;;;;;;5080457;28;19905;-70
2022/02/01 07:49:54;;;;;;;;;;;10.60;55.60;;;;;;5080351;28;19913;-69
2022/02/01 07:52:20;;;;;;;;;;;10.60;56.20;;;;;;5080366;28;19913;-70
2022/02/01 07:54:46;;;;;;;;;;;10.60;55.60;;;;;;5080283;28;20111;-70
2022/02/01 07:57:12;;;;;;;;;;;10.60;55.60;;;;;;5080218;28;19916;-70
2022/02/01 07:59:37;;;;;;;;;;;10.60;55.60;;;;;;5080247;28;19967;-69
2022/02/01 08:02:04;;;;;;;;;;;10.70;55.60;;;;;;5080267;28;19913;-70
2022/02/01 08:04:33;;;;;;;;;;;10.70;55.40;;;;;;5078961;28;19913;-70
2022/02/01 08:06:59;;;;;;;;;;;10.80;55.30;;;;;;5080132;28;19912;-70
2022/02/01 08:09:32;;;;;;;;;;;10.80;55.20;;;;;;5080111;28;19948;-68
2022/02/01 08:11:58;;;;;;;;;;;10.80;55.10;;;;;;5080145;28;20081;-69
2022/02/01 08:16:57;;;;;;;;;;;10.90;55.70;;;;;;5080249;28;19958;-70
2022/02/01 08:19:28;;;;;;;;;;;10.90;55.10;;;;;;5079826;28;20117;-70
2022/02/01 08:21:55;;;;;;;;;;;10.90;55.00;;;;;;5080005;28;19912;-70
2022/02/01 08:24:21;;;;;;;;;;;10.90;55.00;;;;;;5078730;28;20198;-70
2022/02/01 08:26:47;;;;;;;;;;;10.90;54.90;;;;;;5079895;28;19913;-70
2022/02/01 08:29:13;;;;;;;;;;;10.90;55.00;;;;;;5079873;28;19912;-71
2022/02/01 08:31:38;;;;;;;;;;;10.90;55.00;;;;;;5080104;28;19916;-69
2022/02/01 08:34:04;;;;;;;;;;;10.90;55.10;;;;;;5079801;28;20209;-70
2022/02/01 08:36:30;;;;;;;;;;;10.90;55.00;;;;;;5079728;28;19917;-70
2022/02/01 08:38:55;;;;;;;;;;;11.00;54.90;;;;;;5079808;28;19911;-70
2022/02/01 08:41:21;;;;;;;;;;;11.00;54.70;;;;;;5079768;28;19914;-70
2022/02/01 08:43:46;;;;;;;;;;;11.10;54.80;;;;;;5079819;28;20146;-70
2022/02/01 08:46:13;;;;;;;;;;;11.00;54.70;;;;;;5080038;28;20151;-70
2022/02/01 08:48:38;;;;;;;;;;;11.10;54.70;;;;;;5083926;28;19912;-70
2022/02/01 08:51:08;;;;;;;;;;;11.10;54.70;;;;;;5083768;28;20004;-70
2022/02/01 08:53:46;;;;;;;;;;;11.10;54.60;;;;;;5083833;28;19920;-71
2022/02/01 08:57:21;;;;;;;;;;;11.20;54.50;;;;;;5083644;28;19912;-70
2022/02/01 08:58:58;;;;;;;;;;;11.10;54.50;;;;;;5083510;28;19926;-70
2022/02/01 09:01:23;;;;;;;;;;;11.20;54.40;;;;;;5083682;28;19916;-69
2022/02/01 09:03:49;;;;;;;;;;;11.20;54.30;;;;;;5083613;28;19913;-70
2022/02/01 09:06:14;;;;;;;;;;;11.20;54.30;;;;;;5083574;28;19913;-70
2022/02/01 09:08:40;;;;;;;;;;;11.20;54.20;;;;;;5083584;28;19950;-69
2022/02/01 09:11:07;;;;;;;;;;;11.20;54.30;;;;;;5083492;28;19940;-70
2022/02/01 09:13:33;;;;;;;;;;;11.30;54.30;;;;;;5083404;28;20226;-70
2022/02/01 09:15:58;;;;;;;;;;;11.20;54.20;;;;;;5083362;28;19916;-69
2022/02/01 09:18:24;;;;;;;;;;;11.30;54.20;;;;;;5083037;28;20008;-69
2022/02/01 09:20:51;;;;;;;;;;;11.30;54.20;;;;;;5083322;28;19912;-70
2022/02/01 09:23:17;;;;;;;;;;;11.30;54.20;;;;;;5083248;28;19911;-69
2022/02/01 09:25:43;;;;;;;;;;;11.30;54.20;;;;;;5083246;28;19909;-69
2022/02/01 09:28:08;;;;;;;;;;;11.30;54.20;;;;;;5083160;28;19920;-69
2022/02/01 09:30:34;;;;;;;;;;;11.30;54.30;;;;;;5083024;28;20246;-69
2022/02/01 09:33:01;;;;;;;;;;;11.30;54.30;;;;;;5083112;28;19979;-69
2022/02/01 09:35:27;;;;;;;;;;;11.30;54.30;;;;;;5083046;28;20143;-69
2022/02/01 09:37:52;;;;;;;;;;;11.30;54.30;;;;;;5082899;28;19908;-70
2022/02/01 09:40:18;;;;;;;;;;;11.30;54.30;;;;;;5082920;28;19912;-69
2022/02/01 09:42:43;;;;;;;;;;;11.30;54.30;;;;;;5082838;28;19913;-69
2022/02/01 09:45:09;;;;;;;;;;;11.30;54.30;;;;;;5082880;28;20323;-69
2022/02/01 09:47:36;;;;;;;;;;;11.30;54.20;;;;;;5082785;28;19927;-70
2022/02/01 09:50:03;;;;;;;;;;;11.30;54.30;;;;;;5082717;28;19905;-71
2022/02/01 09:52:30;;;;;;;;;;;11.30;54.30;;;;;;5082749;28;19966;-70
2022/02/01 09:54:56;;;;;;;;;;;11.30;54.30;;;;;;5082682;28;19909;-70
2022/02/01 09:57:22;;;;;;;;;;;11.30;54.30;;;;;;5082397;28;19921;-69
2022/02/01 09:59:54;;;;;;;;;;;11.30;54.30;;;;;;5082626;28;20204;-70
2022/02/01 10:02:20;;;;;;;;;;;11.30;54.40;;;;;;5082580;28;19926;-71
2022/02/01 10:04:59;;;;;;;;;;;11.30;54.30;;;;;;5082516;28;19927;-70
2022/02/01 10:07:25;;;;;;;;;;;11.30;54.30;;;;;;5082386;28;20143;-71
2022/02/01 10:09:51;;;;;;;;;;;11.40;54.30;;;;;;5082480;28;19908;-70
2022/02/01 10:12:17;;;;;;;;;;;11.40;54.30;;;;;;5082381;28;19912;-71
2022/02/01 10:14:51;;;;;;;;;;;11.40;54.30;;;;;;5082263;28;19905;-71
2022/02/01 10:17:33;;;;;;;;;;;11.40;54.40;;;;;;5082109;28;20022;-69
2022/02/01 10:19:58;;;;;;;;;;;11.30;54.40;;;;;;5082292;28;20240;-70
2022/02/01 10:22:31;;;;;;;;;;;11.30;54.40;;;;;;5082150;28;19962;-70
2022/02/01 10:24:56;;;;;;;;;;;11.40;54.40;;;;;;5082119;28;19954;-70
2022/02/01 10:27:24;;;;;;;;;;;11.40;54.40;;;;;;5082275;28;19979;-70
2022/02/01 10:30:01;;;;;;;;;;;11.40;54.40;;;;;;5082088;28;19912;-70
2022/02/01 10:37:55;;;;;;;;;;;11.40;54.30;;;;;;5082150;28;19924;-69
2022/02/01 10:40:21;;;;;;;;;;;11.40;54.30;;;;;;5081836;28;19911;-69
2022/02/01 10:43:02;;;;;;;;;;;11.40;54.50;;;;;;5081834;28;19905;-69
2022/02/01 10:45:27;;;;;;;;;;;11.40;54.50;;;;;;5082053;28;19971;-69
2022/02/01 10:47:53;;;;;;;;;;;11.40;54.50;;;;;;5081729;28;19912;-70
2022/02/01 10:50:20;;;;;;;;;;;11.40;54.50;;;;;;5081703;28;19913;-69
2022/02/01 10:52:47;;;;;;;;;;;11.40;54.60;;;;;;5081662;28;19920;-69
2022/02/01 10:55:14;;;;;;;;;;;11.40;54.60;;;;;;5081542;28;19905;-70
2022/02/01 10:57:40;;;;;;;;;;;11.30;54.60;;;;;;5081519;28;19920;-70
2022/02/01 11:00:07;;;;;;;;;;;11.40;54.70;;;;;;5081490;28;19971;-70
2022/02/01 11:02:33;;;;;;;;;;;11.40;54.60;;;;;;5081436;28;19905;-69
2022/02/01 11:04:59;;;;;;;;;;;11.40;54.60;;;;;;5081406;28;19912;-70
2022/02/01 11:07:25;;;;;;;;;;;11.40;54.50;;;;;;5081368;28;20150;-70
2022/02/01 11:09:50;;;;;;;;;;;11.50;54.50;;;;;;5080704;28;19972;-70
2022/02/01 11:12:16;;;;;;;;;;;11.50;54.40;;;;;;5081231;28;19913;-69
2022/02/01 11:14:42;;;;;;;;;;;11.50;54.40;;;;;;5081163;28;19912;-69
2022/02/01 11:17:11;;;;;;;;;;;11.50;54.30;;;;;;5081113;28;19947;-69
2022/02/01 11:19:46;;;;;;;;;;;11.50;54.40;;;;;;5081005;28;19924;-70
2022/02/01 11:22:21;;;;;;;;;;;11.50;54.30;;;;;;5080991;28;19919;-70
2022/02/01 11:24:51;;;;;;;;;;;11.50;54.40;;;;;;5080970;28;20265;-69
2022/02/01 11:27:18;;;;;;;;;;;11.50;54.30;;;;;;5080929;28;19912;-70
2022/02/01 11:32:35;;;;;;;;;;;11.50;54.40;;;;;;5080791;28;19912;-69
2022/02/01 11:35:02;;;;;;;;;;;11.50;54.40;;;;;;5080783;28;19905;-71
2022/02/01 11:37:27;;;;;;;;;;;11.50;54.60;;;;;;5080670;28;19916;-71
2022/02/01 11:39:53;;;;;;;;;;;11.50;54.70;;;;;;5079463;28;19912;-70
2022/02/01 11:42:21;;;;;;;;;;;11.40;54.80;;;;;;5080701;28;19947;-71
2022/02/01 11:44:47;;;;;;;;;;;11.50;54.70;;;;;;5080514;28;19913;-70
2022/02/01 11:47:17;;;;;;;;;;;11.50;54.70;;;;;;5080531;28;19904;-69
2022/02/01 11:49:54;;;;;;;;;;;11.50;54.70;;;;;;5080462;28;19905;-70
2022/02/01 11:52:20;;;;;;;;;;;11.50;54.50;;;;;;5080436;28;19983;-70
2022/02/01 11:54:49;;;;;;;;;;;11.50;54.60;;;;;;5080465;28;19938;-70
2022/02/01 11:57:17;;;;;;;;;;;11.50;54.50;;;;;;5080265;28;19923;-71
2022/02/01 11:59:49;;;;;;;;;;;11.50;54.60;;;;;;5080297;28;19912;-69
2022/02/01 12:02:22;;;;;;;;;;;11.50;54.60;;;;;;5080264;28;19916;-70
2022/02/01 12:04:48;;;;;;;;;;;11.50;54.60;;;;;;5080593;28;19912;-70
2022/02/01 12:07:14;;;;;;;;;;;11.50;54.50;;;;;;5080272;28;19913;-70
2022/02/01 12:09:40;;;;;;;;;;;11.50;54.50;;;;;;5080311;28;19948;-69
2022/02/01 12:12:06;;;;;;;;;;;11.50;54.60;;;;;;5080153;28;20090;-70
2022/02/01 12:14:32;;;;;;;;;;;11.50;54.60;;;;;;5080153;28;19912;-69
2022/02/01 12:16:57;;;;;;;;;;;11.50;54.70;;;;;;5080112;28;19912;-69
2022/02/01 12:19:26;;;;;;;;;;;11.50;54.60;;;;;;5079932;28;20102;-70
2022/02/01 12:22:04;;;;;;;;;;;11.50;54.70;;;;;;5079200;28;20014;-70
2022/02/01 12:24:30;;;;;;;;;;;11.50;54.70;;;;;;5080103;28;20003;-70
2022/02/01 12:26:56;;;;;;;;;;;11.50;54.50;;;;;;5080051;28;19944;-70
2022/02/01 12:29:21;;;;;;;;;;;11.60;54.70;;;;;;5079978;28;19919;-70
2022/02/01 12:31:48;;;;;;;;;;;11.60;54.60;;;;;;5079953;28;19905;-70
2022/02/01 12:34:15;;;;;;;;;;;11.50;54.60;;;;;;5079986;28;19912;-70
2022/02/01 12:36:42;;;;;;;;;;;11.60;54.60;;;;;;5079897;28;19909;-69
2022/02/01 12:39:15;;;;;;;;;;;11.50;55.10;;;;;;5080143;28;19925;-70
2022/02/01 12:41:43;;;;;;;;;;;11.50;54.50;;;;;;5079926;28;19927;-72
2022/02/01 12:46:51;;;;;;;;;;;11.50;54.60;;;;;;5079795;28;19953;-69
2022/02/01 12:49:18;;;;;;;;;;;11.50;54.70;;;;;;5079799;28;19912;-69
2022/02/01 12:51:48;;;;;;;;;;;11.50;54.70;;;;;;5079834;28;19912;-71
2022/02/01 12:54:20;;;;;;;;;;;11.50;54.60;;;;;;5079858;28;19910;-69
2022/02/01 12:56:46;;;;;;;;;;;11.50;54.50;;;;;;5079702;28;19909;-70
2022/02/01 12:59:11;;;;;;;;;;;11.50;54.70;;;;;;5079700;28;19913;-71
2022/02/01 13:01:38;;;;;;;;;;;11.50;54.60;;;;;;5079746;28;20207;-71
2022/02/01 13:04:04;;;;;;;;;;;11.60;54.60;;;;;;5079661;28;19984;-70
2022/02/01 13:06:33;;;;;;;;;;;11.60;54.70;;;;;;5079667;28;19982;-70
2022/02/01 13:14:45;;;;;;;;;;;11.50;54.80;;;;;;5079685;28;19911;-69
2022/02/01 13:17:38;;;;;;;;;;;11.50;54.70;;;;;;5079528;28;19999;-68
2022/02/01 13:20:12;;;;;;;;;;;11.50;54.60;;;;;;5079506;28;19999;-70
2022/02/01 13:22:58;;;;;;;;;;;11.60;54.40;;;;;;5079533;28;20251;-69
2022/02/01 13:25:46;;;;;;;;;;;11.60;54.30;;;;;;5079416;28;19916;-69
2022/02/01 13:28:13;;;;;;;;;;;11.60;54.30;;;;;;5079454;28;19912;-70
2022/02/01 13:30:43;;;;;;;;;;;11.70;54.40;;;;;;5079485;28;19975;-70
2022/02/01 13:33:10;;;;;;;;;;;11.70;54.30;;;;;;5081330;28;19984;-70
2022/02/01 13:35:42;;;;;;;;;;;11.70;54.20;;;;;;5083075;28;19911;-69
2022/02/01 13:38:10;;;;;;;;;;;11.70;54.40;;;;;;5082951;28;19931;-70
2022/02/01 13:40:36;;;;;;;;;;;11.70;54.40;;;;;;5083000;28;19905;-70
2022/02/01 13:43:10;;;;;;;;;;;11.60;54.50;;;;;;5082898;28;19920;-70
2022/02/01 13:45:36;;;;;;;;;;;11.60;54.70;;;;;;5082557;28;19947;-69
2022/02/01 13:48:02;;;;;;;;;;;11.60;54.70;;;;;;5082835;28;19919;-70
2022/02/01 13:50:27;;;;;;;;;;;11.60;54.70;;;;;;5082826;28;19912;-69
2022/02/01 13:52:58;;;;;;;;;;;11.60;54.80;;;;;;5082715;28;19954;-69
2022/02/01 13:55:25;;;;;;;;;;;11.60;54.80;;;;;;5082774;28;19917;-69
2022/02/01 13:58:20;;;;;;;;;;;11.60;54.80;;;;;;5082602;28;19983;-70
2022/02/01 14:00:53;;;;;;;;;;;11.60;54.70;;;;;;5081248;28;20137;-69
2022/02/01 14:03:44;;;;;;;;;;;11.60;54.80;;;;;;5082614;28;19904;-70
2022/02/01 14:08:48;;;;;;;;;;;11.60;54.60;;;;;;5082424;28;19935;-69
2022/02/01 14:27:44;;;;;;;;;;;11.80;54.30;;;;;;5082164;28;19959;-70
2022/02/01 14:35:38;;;;;;;;;;;11.90;54.00;;;;;;5081994;28;20097;-71
2022/02/01 14:38:11;;;;;;;;;;;11.90;54.10;;;;;;5081820;28;19920;-70
2022/02/01 14:43:46;;;;;;;;;;;11.90;53.90;;;;;;5081770;28;19946;-70
2022/02/01 14:46:09;;;;;;;;;;;11.90;54.00;;;;;;5081311;28;19959;-69
2022/02/01 14:48:36;;;;;;;;;;;11.90;54.10;;;;;;5081669;28;19917;-69
2022/02/01 14:51:03;;;;;;;;;;;12.00;54.10;;;;;;5081659;28;20227;-70
2022/02/01 14:53:28;;;;;;;;;;;12.00;54.00;;;;;;5081628;28;19920;-70
2022/02/01 14:56:07;;;;;;;;;;;11.90;53.90;;;;;;5081580;28;20195;-70
2022/02/01 15:04:11;;;;;;;;;;;11.90;54.40;;;;;;5081472;28;19942;-69
2022/02/01 15:12:15;;;;;;;;;;;11.80;54.30;;;;;;5081261;28;19976;-70
2022/02/01 15:14:40;;;;;;;;;;;11.80;54.50;;;;;;5081267;28;19911;-70
2022/02/01 15:17:07;;;;;;;;;;;11.80;54.50;;;;;;5081008;28;19916;-70
2022/02/01 15:19:32;;;;;;;;;;;11.80;54.60;;;;;;5080898;28;19962;-70
2022/02/01 15:21:58;;;;;;;;;;;11.80;55.20;;;;;;5081056;28;19912;-70
2022/02/01 15:24:24;;;;;;;;;;;11.80;54.60;;;;;;5081000;28;19923;-69
2022/02/01 15:26:49;;;;;;;;;;;11.80;54.40;;;;;;5079756;28;20155;-70
2022/02/01 15:29:15;;;;;;;;;;;11.80;54.70;;;;;;5080864;28;19919;-70
2022/02/01 15:31:41;;;;;;;;;;;11.80;54.60;;;;;;5080779;28;19905;-70
2022/02/01 15:34:06;;;;;;;;;;;11.80;54.80;;;;;;5080780;28;19966;-71
2022/02/01 15:36:35;;;;;;;;;;;11.70;54.80;;;;;;5080684;28;19911;-70
2022/02/01 15:58:04;;;;;;;;;;;11.60;55.00;;;;;;5080301;28;20243;-70
2022/02/01 16:00:30;;;;;;;;;;;11.60;55.10;;;;;;5080303;28;19916;-69
2022/02/01 16:03:01;;;;;;;;;;;11.60;55.00;;;;;;5080353;28;19905;-70
2022/02/01 16:05:26;;;;;;;;;;;11.60;55.00;;;;;;5080371;28;19912;-71
2022/02/01 16:07:53;;;;;;;;;;;11.60;54.70;;;;;;5080266;28;20003;-70
2022/02/01 16:10:34;;;;;;;;;;;11.60;55.00;;;;;;5080418;28;20191;-70
2022/02/01 16:13:07;;;;;;;;;;;11.60;55.00;;;;;;5080238;28;19930;-71
2022/02/01 16:15:33;;;;;;;;;;;11.60;55.20;;;;;;5080248;28;19912;-70
2022/02/01 16:17:58;;;;;;;;;;;11.60;55.10;;;;;;5079937;28;19995;-71
2022/02/01 16:20:24;;;;;;;;;;;11.60;55.20;;;;;;5080153;28;19924;-70
2022/02/01 16:22:49;;;;;;;;;;;11.60;55.20;;;;;;5080140;28;19939;-70
2022/02/01 16:25:15;;;;;;;;;;;11.60;55.10;;;;;;5080041;28;19905;-71
2022/02/01 16:27:41;;;;;;;;;;;11.60;55.20;;;;;;5080036;28;19905;-70
2022/02/01 16:30:06;;;;;;;;;;;11.60;55.10;;;;;;5080047;28;19970;-70
2022/02/01 16:32:32;;;;;;;;;;;11.60;55.70;;;;;;5079992;28;20101;-70
2022/02/01 16:34:57;;;;;;;;;;;11.60;55.20;;;;;;5078772;28;19904;-70
2022/02/01 16:37:23;;;;;;;;;;;11.60;55.10;;;;;;5078619;28;19959;-70
2022/02/01 16:39:49;;;;;;;;;;;11.60;55.20;;;;;;5079968;28;19912;-70
2022/02/01 16:42:16;;;;;;;;;;;11.60;55.20;;;;;;5080150;28;19913;-70
2022/02/01 16:44:42;;;;;;;;;;;11.60;55.10;;;;;;5079829;28;19905;-70
2022/02/01 16:47:08;;;;;;;;;;;11.60;55.20;;;;;;5079908;28;19984;-71
2022/02/01 16:49:33;;;;;;;;;;;11.60;55.20;;;;;;5079865;28;19939;-71
2022/02/01 16:52:02;;;;;;;;;;;11.60;55.20;;;;;;5078668;28;20105;-68